Terminal Aerodrome Forecast
Issued by NWS Boston, MA

Home | Current Version | Previous Version | Text Only | Print | Product List | Glossary On
Versions: 1 2 3 4 5 6 7 8 9 10 11 12 13 14 15 16 17 18 19 20 21 22 23 24 25 26 27 28 29 30 31 32 33 34 35 36 37 38 39 40 41 42 43 44 45 46
000
FTUS41 KBOX 171736
TAFBDL
TAF
KBDL 171736Z 1718/1824 01004KT P6SM VCSH SCT040 OVC060
     FM172000 VRB03KT 6SM -RAPL OVC040
     FM180200 VRB03KT 2SM -RAPL OVC010
     FM180500 01004KT 1SM -FZRAPL OVC010
     FM180800 01006KT 1SM -RASN OVC010
     FM181100 36007KT 1SM BR VCSH OVC010
     FM182100 36007KT P6SM OVC010=

USA.gov is the U.S. government's official web portal to all federal, state and local government web resources and services.